Homewood Airport

METAR CYWG TAF CYWG
-30 °C
°C
-
°C
1h
Leeftijd
02:02:21
LT
01:02
UTC
0 ft

6.000

12.000

18.000

24.000

30.000

FEW 25.000
VFR
<?= Yii::t('app', 'Wind direction') ?> <?= Yii::t('app', 'of'); ?>
280°
07:58
Zonsopgang
68%
Luchtvochtigheid
Windschering
Gesloten/sneeuw
Baanzicht
Baanconditie
Verticaal zicht
Min. zicht
CAVOK
Trend
Correctie
Speciaal rapport
30,59 inHg
QNH
METAR CYWG 030000Z 28007KT 15SM FEW250 M30/M34 A3059 RMK CI1 CI TR SLP397
Licht bewolkt
2 kt
2 kt
19:00
VFR
10 kt
20:00
VFR
8 kt
21:00
VFR
8 kt
22:00
VFR
8 kt
23:00
VFR
8 kt
00:00
VFR
8 kt
01:00
VFR
8 kt
15 mi
Zicht
Geen
Plafond
7 kt
Wind
metar-taf.com/CJT8

Metar-Taf.com

Visuele decoder

Wij en derden volgen je internetgedrag op onze website met cookies. Als je doorgaat, gaan we ervan uit dat je akkoord gaat met onze cookiebeleid.